^^
Grace C. Lehan Memorial Weather Station Historical Data
Daily Summary for February 2, 2021 Units:  English    Metric   Both
Daily Weekly Monthly Yearly
  High: Low: Average:
Temperature: 81.9 °F 55.2 °F 68.8 °F
Dew Point: 62.7 °F 51.7 °F 57.1 °F
Humidity: 90.9% 40.7% 68%
Wind Speed: 2mph 0mph 0.2mph
Wind Gust: 7mph - -
Wind- - SSW
Pressure: 30.22 in 30.14 in -
Precipitation: 0.00 in    
 
 
Tabular Data for February 2, 2021
Time Temperature Dew Point Pressure Wind Wind Speed Wind Gust Humidity Rainfall Rate (Hourly) solar
00:00 62.2 °F 53.8 °F 30.19 in Calm     74% 0.00 in 0 W/m2
00:09 62 °F 53.6 °F 30.19 in Calm     74% 0.00 in 0 W/m2
00:14 61.9 °F 53.5 °F 30.19 in Calm     74% 0.00 in 0 W/m2
00:19 61.7 °F 53.4 °F 30.19 in Calm     74% 0.00 in 0 W/m2
00:24 61.7 °F 53.3 °F 30.19 in Calm     74% 0.00 in 0 W/m2
00:29 61.6 °F 53.2 °F 30.19 in Calm     74% 0.00 in 0 W/m2
00:34 61.4 °F 53.1 °F 30.19 in Calm     74% 0.00 in 0 W/m2
00:39 61.3 °F 53 °F 30.19 in Calm     74.1% 0.00 in 0 W/m2
00:44 61.2 °F 53.1 °F 30.19 in Calm     74.8% 0.00 in 0 W/m2
00:49 61 °F 53 °F 30.19 in Calm     75% 0.00 in 0 W/m2
00:54 60.8 °F 52.9 °F 30.18 in Calm     75% 0.00 in 0 W/m2
00:59 60.7 °F 52.8 °F 30.18 in Calm     75% 0.00 in 0 W/m2
01:04 60.6 °F 52.7 °F 30.19 in Calm     75% 0.00 in 0 W/m2
01:09 60.5 °F 52.9 °F 30.19 in Calm     75.8% 0.00 in 0 W/m2
01:14 60.4 °F 52.8 °F 30.19 in Calm     76% 0.00 in 0 W/m2
01:19 60.3 °F 52.7 °F 30.19 in Calm     76% 0.00 in 0 W/m2
01:24 60.2 °F 52.6 °F 30.19 in Calm     76% 0.00 in 0 W/m2
01:29 60.1 °F 52.8 °F 30.19 in Calm     76.5% 0.00 in 0 W/m2
01:34 60 °F 52.8 °F 30.19 in Calm     77% 0.00 in 0 W/m2
01:39 59.8 °F 52.8 °F 30.19 in Calm     77.4% 0.00 in 0 W/m2
01:44 59.7 °F 52.8 °F 30.19 in Calm     77.9% 0.00 in 0 W/m2
01:49 59.5 °F 52.7 °F 30.19 in Calm     78% 0.00 in 0 W/m2
01:54 59.4 °F 52.8 °F 30.19 in Calm     78.7% 0.00 in 0 W/m2
01:59 59.2 °F 52.7 °F 30.19 in Calm     79% 0.00 in 0 W/m2
02:04 59 °F 52.7 °F 30.19 in Calm     79.5% 0.00 in 0 W/m2
02:09 58.9 °F 52.7 °F 30.19 in Calm     80% 0.00 in 0 W/m2
02:14 58.8 °F 52.6 °F 30.18 in Calm     80% 0.00 in 0 W/m2
02:19 58.6 °F 52.5 °F 30.18 in Calm     80% 0.00 in 0 W/m2
02:24 58.5 °F 52.4 °F 30.19 in Calm     80% 0.00 in 0 W/m2
02:29 58.4 °F 52.6 °F 30.18 in Calm     81% 0.00 in 0 W/m2
02:34 58.3 °F 52.5 °F 30.18 in Calm     81% 0.00 in 0 W/m2
02:39 58.2 °F 52.6 °F 30.19 in Calm     81.5% 0.00 in 0 W/m2
02:44 58.2 °F 52.7 °F 30.19 in Calm     82% 0.00 in 0 W/m2
02:49 58.1 °F 52.6 °F 30.18 in Calm     82% 0.00 in 0 W/m2
02:54 58 °F 52.5 °F 30.18 in Calm     82% 0.00 in 0 W/m2
02:59 58 °F 52.6 °F 30.18 in Calm     82.1% 0.00 in 0 W/m2
03:04 57.9 °F 52.8 °F 30.18 in Calm     83% 0.00 in 0 W/m2
03:09 57.8 °F 52.7 °F 30.18 in Calm     83% 0.00 in 0 W/m2
03:14 57.6 °F 52.5 °F 30.18 in Calm     83% 0.00 in 0 W/m2
03:19 57.5 °F 52.4 °F 30.19 in Calm     83.1% 0.00 in 0 W/m2
03:24 57.4 °F 52.4 °F 30.19 in Calm     83.6% 0.00 in 0 W/m2
03:29 57.2 °F 52.5 °F 30.19 in Calm     84% 0.00 in 0 W/m2
03:34 57.1 °F 52.3 °F 30.19 in Calm     84% 0.00 in 0 W/m2
03:39 57 °F 52.2 °F 30.19 in Calm     84% 0.00 in 0 W/m2
03:44 56.9 °F 52.4 °F 30.19 in Calm     84.8% 0.00 in 0 W/m2
03:49 56.8 °F 52.3 °F 30.19 in Calm     85% 0.00 in 0 W/m2
03:54 56.7 °F 52.2 °F 30.19 in Calm     85% 0.00 in 0 W/m2
03:59 56.6 °F 52.3 °F 30.19 in Calm     85.6% 0.00 in 0 W/m2
04:09 56.4 °F 52.3 °F 30.19 in Calm     86% 0.00 in 0 W/m2
04:14 56.4 °F 52.3 °F 30.19 in Calm     86% 0.00 in 0 W/m2
04:19 56.3 °F 52.2 °F 30.19 in Calm     86% 0.00 in 0 W/m2
04:24 56.2 °F 52.1 °F 30.19 in Calm     86.1% 0.00 in 0 W/m2
04:29 56.1 °F 52.3 °F 30.19 in Calm     87% 0.00 in 0 W/m2
04:34 56 °F 52.2 °F 30.19 in Calm     87% 0.00 in 0 W/m2
04:39 56 °F 52.2 °F 30.19 in Calm     87% 0.00 in 0 W/m2
04:44 55.9 °F 52.1 °F 30.19 in Calm     87% 0.00 in 0 W/m2
04:49 55.8 °F 52 °F 30.19 in Calm     87% 0.00 in 0 W/m2
04:54 55.8 °F 52 °F 30.19 in Calm     87% 0.00 in 0 W/m2
04:59 55.7 °F 51.9 °F 30.19 in Calm     87% 0.00 in 0 W/m2
05:04 55.6 °F 51.8 °F 30.19 in Calm     87.2% 0.00 in 0 W/m2
05:09 55.5 °F 51.7 °F 30.19 in Calm     87% 0.00 in 0 W/m2
05:14 55.4 °F 51.9 °F 30.19 in Calm     88% 0.00 in 0 W/m2
05:19 55.3 °F 51.9 °F 30.19 in Calm     88% 0.00 in 0 W/m2
05:24 55.3 °F 51.8 °F 30.19 in Calm     88% 0.00 in 5 W/m2
05:29 55.2 °F 51.9 °F 30.19 in Calm     88.5% 0.00 in 7 W/m2
05:34 55.2 °F 52 °F 30.19 in Calm     89% 0.00 in 9 W/m2
05:39 55.2 °F 52.1 °F 30.19 in Calm     89% 0.00 in 14 W/m2
05:44 55.3 °F 52.1 °F 30.19 in Calm     89% 0.00 in 16 W/m2
05:48 55.3 °F 52.1 °F 30.20 in Calm     89% 0.00 in 18 W/m2
06:14 55.3 °F 52.1 °F 30.21 in Calm     89% 0.00 in 37 W/m2
06:19 55.4 °F 52.2 °F 30.21 in Calm     89% 0.00 in 35 W/m2
06:24 55.5 °F 52.4 °F 30.21 in Calm     89.4% 0.00 in 40 W/m2
06:29 55.6 °F 52.7 °F 30.21 in Calm     90% 0.00 in 44 W/m2
06:34 55.7 °F 52.9 °F 30.21 in Calm     90% 0.00 in 58 W/m2
06:39 56 °F 53.1 °F 30.20 in Calm     90% 0.00 in 70 W/m2
06:44 56.3 °F 53.4 °F 30.20 in Calm     90% 0.00 in 81 W/m2
06:49 56.9 °F 54.2 °F 30.20 in Calm     90.9% 0.00 in 81 W/m2
06:54 57.6 °F 54.8 °F 30.20 in Calm     90.2% 0.00 in 81 W/m2
06:59 58.4 °F 55 °F 30.20 in Calm     88.6% 0.00 in 81 W/m2
07:04 59.2 °F 55.5 °F 30.20 in Calm     87.5% 0.00 in 86 W/m2
07:09 60 °F 56 °F 30.20 in Calm     86.5% 0.00 in 100 W/m2
07:14 60.8 °F 56.3 °F 30.20 in Calm     85% 0.00 in 118 W/m2
07:19 61.6 °F 56.4 °F 30.20 in Calm     83.2% 0.00 in 223 W/m2
07:24 62.5 °F 57 °F 30.20 in Calm     82.1% 0.00 in 267 W/m2
07:29 63.3 °F 57.1 °F 30.20 in Calm     80.4% 0.00 in 237 W/m2
07:34 63.8 °F 56.8 °F 30.21 in Calm     78% 0.00 in 290 W/m2
07:39 64.2 °F 56.7 °F 30.21 in Calm     76.8% 0.00 in 290 W/m2
07:44 64.4 °F 56.9 °F 30.21 in Calm     76.5% 0.00 in 278 W/m2
07:49 64.6 °F 57.3 °F 30.20 in Calm     77.2% 0.00 in 353 W/m2
07:54 64.9 °F 57.6 °F 30.21 in Calm     77.1% 0.00 in 353 W/m2
07:59 65.3 °F 57.8 °F 30.21 in Calm     76.7% 0.00 in 316 W/m2
08:00 65.5 °F 57.7 °F 30.21 in Calm     76% 0.00 in 281 W/m2
08:09 66 °F 57.7 °F 30.21 in Calm     74.6% 0.00 in 417 W/m2
08:14 66.4 °F 58 °F 30.22 in Calm     74.3% 0.00 in 434 W/m2
08:19 66.8 °F 58.1 °F 30.22 in Calm     73.7% 0.00 in 434 W/m2
08:24 67 °F 58.3 °F 30.22 in Calm     73.5% 0.00 in 475 W/m2
08:29 67.5 °F 58.8 °F 30.21 in Calm     73.9% 0.00 in 432 W/m2
08:34 67.7 °F 58.6 °F 30.21 in Calm     72.6% 0.00 in 399 W/m2
08:39 68.1 °F 58.9 °F 30.21 in Calm     72.5% 0.00 in 504 W/m2
08:44 68.6 °F 58.7 °F 30.21 in Calm     70.7% 0.00 in 504 W/m2
08:49 69.2 °F 59.4 °F 30.21 in Calm     71.2% 0.00 in 459 W/m2
08:54 69.6 °F 59 °F 30.21 in Calm     69.1% 0.00 in 468 W/m2
08:59 69.9 °F 59.5 °F 30.21 in Calm     69.3% 0.00 in 503 W/m2
09:04 70.3 °F 59.6 °F 30.21 in Calm     68.8% 0.00 in 605 W/m2
09:09 70.8 °F 59.7 °F 30.21 in Calm     68% 0.00 in 635 W/m2
09:14 71.4 °F 59.7 °F 30.21 in Calm     66.6% 0.00 in 570 W/m2
09:19 71.7 °F 59.9 °F 30.21 in Calm     66.4% 0.00 in 617 W/m2
09:24 72.1 °F 60.2 °F 30.21 in Calm   1 mph 66.2% 0.00 in 617 W/m2
09:29 72.5 °F 59.9 °F 30.21 in East 0.1 mph 2 mph 64.7% 0.00 in 617 W/m2
09:34 72.8 °F 60.1 °F 30.21 in Calm   2 mph 64.5% 0.00 in 642 W/m2
09:39 73.1 °F 60 °F 30.21 in Calm     63.4% 0.00 in 742 W/m2
09:44 73.3 °F 60.5 °F 30.21 in Calm     64.1% 0.00 in 742 W/m2
09:49 73.6 °F 60.2 °F 30.21 in Calm   1 mph 62.9% 0.00 in 733 W/m2
09:54 73.8 °F 59.9 °F 30.21 in Calm   1 mph 61.8% 0.00 in 756 W/m2
09:59 74.2 °F 60.7 °F 30.21 in East 0.1 mph 2 mph 62.7% 0.00 in 756 W/m2
10:04 74.8 °F 61.5 °F 30.20 in Calm   2 mph 63.4% 0.00 in 752 W/m2
10:09 75.4 °F 61.3 °F 30.20 in Calm     61.6% 0.00 in 793 W/m2
10:14 75.9 °F 61.6 °F 30.20 in Calm     61.1% 0.00 in 798 W/m2
10:19 76.2 °F 60.7 °F 30.20 in Calm     58.7% 0.00 in 765 W/m2
10:24 76 °F 61.2 °F 30.20 in Calm     60.1% 0.00 in 837 W/m2
10:29 76.3 °F 61.7 °F 30.20 in Calm     60.5% 0.00 in 795 W/m2
10:34 76.9 °F 62 °F 30.20 in Calm   1 mph 60% 0.00 in 780 W/m2
10:39 77.3 °F 61.3 °F 30.20 in Calm   1 mph 57.9% 0.00 in 766 W/m2
10:44 77.3 °F 61.2 °F 30.20 in Calm   1 mph 57.7% 0.00 in 677 W/m2
10:49 77.3 °F 61.7 °F 30.20 in Calm   1 mph 58.6% 0.00 in 809 W/m2
10:54 77.5 °F 62.5 °F 30.20 in Calm   1 mph 59.8% 0.00 in 837 W/m2
10:59 78 °F 62.7 °F 30.20 in Calm   1 mph 59.4% 0.00 in 872 W/m2
11:04 78.5 °F 61.8 °F 30.20 in SSE 0.2 mph 4 mph 56.5% 0.00 in 826 W/m2
11:09 78.8 °F 61.5 °F 30.20 in SSE 0.1 mph 4 mph 55.4% 0.00 in 879 W/m2
11:14 78.9 °F 61.9 °F 30.19 in Calm   4 mph 56% 0.00 in 849 W/m2
11:19 79.1 °F 62.5 °F 30.20 in South 0.5 mph 4 mph 56.7% 0.00 in 930 W/m2
11:24 79.3 °F 61.9 °F 30.20 in Calm   4 mph 55.5% 0.00 in 909 W/m2
11:29 79.5 °F 62.2 °F 30.20 in SSW 0.1 mph 4 mph 55.7% 0.00 in 940 W/m2
11:34 79.8 °F 62.2 °F 30.19 in Calm   4 mph 54.9% 0.00 in 951 W/m2
11:39 79.9 °F 61.5 °F 30.19 in WSW 0.1 mph 3 mph 53.5% 0.00 in 963 W/m2
11:44 80.2 °F 61.5 °F 30.19 in WSW 0.3 mph 3 mph 53.1% 0.00 in 963 W/m2
11:49 80.5 °F 60.5 °F 30.19 in SW 0.3 mph 4 mph 50.7% 0.00 in 960 W/m2
11:54 80.6 °F 61.6 °F 30.19 in SW 0.2 mph 4 mph 52.3% 0.00 in 946 W/m2
11:59 80.7 °F 60.2 °F 30.18 in SW 0.2 mph 4 mph 49.6% 0.00 in 958 W/m2
12:09 80.8 °F 58.1 °F 30.18 in SSW 0.1 mph 4 mph 45.9% 0.00 in 974 W/m2
12:14 80.9 °F 60.5 °F 30.18 in SSW 1.1 mph 4 mph 49.9% 0.00 in 962 W/m2
12:19 81.3 °F 57.2 °F 30.18 in Calm   4 mph 43.8% 0.00 in 972 W/m2
12:24 81.4 °F 56.7 °F 30.18 in SW 0.3 mph 5 mph 43% 0.00 in 970 W/m2
12:29 81.7 °F 58.7 °F 30.18 in WSW 0.4 mph 5 mph 45.7% 0.00 in 977 W/m2
12:34 81.9 °F 57.9 °F 30.18 in WSW 0.4 mph 5 mph 44.1% 0.00 in 977 W/m2
12:39 81.8 °F 57.4 °F 30.17 in SW 0.6 mph 3 mph 43.5% 0.00 in 969 W/m2
12:44 81.5 °F 56 °F 30.17 in SSE 0.9 mph 4 mph 41.7% 0.00 in 974 W/m2
12:49 81.1 °F 55.6 °F 30.17 in SSE 1.2 mph 5 mph 41.7% 0.00 in 991 W/m2
12:54 80.9 °F 55.5 °F 30.17 in SSE 0.2 mph 5 mph 41.7% 0.00 in 1025 W/m2
12:59 81.1 °F 55 °F 30.17 in SSE 0.3 mph 5 mph 40.7% 0.00 in 937 W/m2
13:04 80.9 °F 56.2 °F 30.16 in SSE 0.6 mph 5 mph 42.8% 0.00 in 1004 W/m2
13:09 80.9 °F 57.3 °F 30.16 in SSE 1 mph 4 mph 44.6% 0.00 in 1004 W/m2
13:14 81 °F 58.7 °F 30.16 in South 1.5 mph 5 mph 46.6% 0.00 in 976 W/m2
13:19 81.3 °F 58.5 °F 30.16 in South 0.5 mph 5 mph 45.9% 0.00 in 1032 W/m2
13:24 81.2 °F 57 °F 30.16 in South 0.5 mph 5 mph 43.6% 0.00 in 766 W/m2
13:29 80.8 °F 57 °F 30.16 in SSE 0.9 mph 5 mph 44.2% 0.00 in 687 W/m2
13:34 80.4 °F 57.6 °F 30.16 in SSE 0.7 mph 5 mph 45.8% 0.00 in 687 W/m2
13:39 80.3 °F 57.9 °F 30.16 in South 0.1 mph 4 mph 46.4% 0.00 in 592 W/m2
13:44 80.3 °F 59.5 °F 30.16 in Calm   4 mph 49.2% 0.00 in 591 W/m2
13:49 80.2 °F 58.2 °F 30.15 in Calm   4 mph 47.1% 0.00 in 900 W/m2
13:54 80.1 °F 59 °F 30.15 in Calm   4 mph 48.6% 0.00 in 900 W/m2
13:59 80.4 °F 60.3 °F 30.15 in South 2 mph 4 mph 50.3% 0.00 in 715 W/m2
14:04 80.8 °F 59.4 °F 30.15 in SSW 0.5 mph 6 mph 48.2% 0.00 in 694 W/m2
14:09 80.9 °F 59 °F 30.15 in WSW 0.7 mph 6 mph 47.4% 0.00 in 652 W/m2
14:14 80.9 °F 58.5 °F 30.15 in South 1.1 mph 6 mph 46.5% 0.00 in 865 W/m2
14:19 80.9 °F 58.6 °F 30.15 in SSW 0.3 mph 6 mph 46.6% 0.00 in 921 W/m2
14:24 81.1 °F 58.8 °F 30.15 in SSW 0.6 mph 6 mph 46.6% 0.00 in 819 W/m2
14:29 81.3 °F 58.5 °F 30.14 in SSW 0.4 mph 6 mph 46% 0.00 in 819 W/m2
14:34 81.2 °F 59.7 °F 30.15 in WSW 0.8 mph 6 mph 48.1% 0.00 in 965 W/m2
14:39 81.4 °F 59.2 °F 30.14 in WSW 1 mph 4 mph 47% 0.00 in 991 W/m2
14:44 81.5 °F 59.3 °F 30.14 in WSW 0.5 mph 7 mph 46.9% 0.00 in 949 W/m2
14:49 81.7 °F 60.8 °F 30.15 in WSW 1.7 mph 7 mph 49.3% 0.00 in 744 W/m2
14:54 81.9 °F 60.8 °F 30.14 in WSW 1.1 mph 7 mph 48.9% 0.00 in 740 W/m2
14:59 81.8 °F 60.2 °F 30.14 in WSW 1.2 mph 7 mph 48% 0.00 in 464 W/m2
15:04 81.4 °F 59.3 °F 30.14 in SW 0.6 mph 7 mph 46.9% 0.00 in 499 W/m2
15:09 81.1 °F 59.7 °F 30.14 in SSW 1 mph 4 mph 48.2% 0.00 in 327 W/m2
15:14 80.8 °F 59.9 °F 30.14 in South 0.1 mph 4 mph 49% 0.00 in 323 W/m2
15:19 80.4 °F 58.8 °F 30.14 in South 0.1 mph 4 mph 47.7% 0.00 in 330 W/m2
15:24 80.1 °F 58.5 °F 30.14 in South 0.9 mph 4 mph 47.7% 0.00 in 299 W/m2
15:29 79.7 °F 58 °F 30.14 in South 0.6 mph 4 mph 47.4% 0.00 in 246 W/m2
15:34 79.4 °F 59.5 °F 30.14 in SSW 0.7 mph 4 mph 50.6% 0.00 in 260 W/m2
15:39 78.9 °F 59.5 °F 30.14 in SW 2 mph 6 mph 51.4% 0.00 in 239 W/m2
15:44 78.4 °F 58.7 °F 30.14 in South 0.6 mph 6 mph 50.9% 0.00 in 306 W/m2
15:49 78 °F 59 °F 30.14 in SW 1.7 mph 7 mph 52.2% 0.00 in 306 W/m2
15:54 77.6 °F 58.6 °F 30.14 in SSW 1.1 mph 7 mph 52% 0.00 in 281 W/m2
15:59 77.2 °F 58.4 °F 30.14 in SSW 0.4 mph 7 mph 52.4% 0.00 in 299 W/m2
16:00 77.1 °F 58.7 °F 30.14 in SSW 0.3 mph 7 mph 53% 0.00 in 281 W/m2
16:09 77 °F 59 °F 30.14 in SSW 1 mph 5 mph 53.9% 0.00 in 336 W/m2
16:14 76.8 °F 58.8 °F 30.14 in SSW 1.3 mph 5 mph 53.8% 0.00 in 232 W/m2
16:19 76.5 °F 59.2 °F 30.14 in South 1.5 mph 7 mph 55.1% 0.00 in 250 W/m2
16:24 76.3 °F 59.4 °F 30.14 in South 0.9 mph 7 mph 56% 0.00 in 258 W/m2
16:29 76 °F 59.9 °F 30.14 in SSW 1.2 mph 7 mph 57.4% 0.00 in 264 W/m2
16:34 76 °F 60.3 °F 30.14 in SSW 1 mph 7 mph 58.4% 0.00 in 251 W/m2
16:39 75.8 °F 60.2 °F 30.14 in South 1.1 mph 5 mph 58.5% 0.00 in 234 W/m2
16:44 75.6 °F 60.5 °F 30.14 in South 0.9 mph 5 mph 59.6% 0.00 in 234 W/m2
16:49 75.4 °F 61.1 °F 30.14 in South 0.6 mph 5 mph 61% 0.00 in 183 W/m2
16:54 75.3 °F 61.2 °F 30.14 in SSW 1.2 mph 6 mph 61.5% 0.00 in 127 W/m2
16:59 75 °F 61 °F 30.14 in South 0.9 mph 6 mph 61.8% 0.00 in 135 W/m2
17:04 74.7 °F 61.3 °F 30.14 in South 0.5 mph 6 mph 63.1% 0.00 in 134 W/m2
17:09 74.6 °F 61.6 °F 30.15 in South 0.2 mph 4 mph 64% 0.00 in 118 W/m2
17:14 74.4 °F 61.7 °F 30.15 in South 1.2 mph 7 mph 64.6% 0.00 in 120 W/m2
17:19 74.2 °F 61.7 °F 30.15 in SW 0.5 mph 7 mph 65.2% 0.00 in 141 W/m2
17:24 73.9 °F 61.5 °F 30.15 in SSW 0.7 mph 7 mph 65.1% 0.00 in 153 W/m2
17:29 73.7 °F 61.2 °F 30.14 in SSW 0.2 mph 7 mph 65% 0.00 in 153 W/m2
17:34 73.5 °F 61.4 °F 30.14 in SW 0.4 mph 7 mph 65.8% 0.00 in 142 W/m2
17:39 73.4 °F 61.2 °F 30.14 in SSW 0.5 mph 4 mph 65.7% 0.00 in 142 W/m2
17:43 73.3 °F 61.3 °F 30.14 in SSW 0.5 mph 4 mph 66% 0.00 in 135 W/m2
18:00 73.1 °F 60.7 °F 30.14 in Calm   4 mph 65% 0.00 in 120 W/m2
18:30 72.1 °F 61 °F 30.14 in Calm   4 mph 68% 0.00 in 59 W/m2
19:00 71.2 °F 60.5 °F 30.14 in Calm   5 mph 69% 0.00 in 41 W/m2
19:30 70.5 °F 60.3 °F 30.14 in Calm   3 mph 70% 0.00 in 32 W/m2
20:04 69.4 °F 60 °F 30.15 in Calm     72% 0.00 in 0 W/m2
20:09 69.3 °F 60.2 °F 30.15 in SW 0.4 mph 2 mph 72.7% 0.00 in 0 W/m2
20:14 69.1 °F 60.1 °F 30.15 in SW 0.4 mph 3 mph 73% 0.00 in 0 W/m2
20:19 68.9 °F 59.9 °F 30.15 in Calm   3 mph 73% 0.00 in 0 W/m2
20:24 68.8 °F 60.1 °F 30.15 in Calm   3 mph 73.8% 0.00 in 0 W/m2
20:29 68.6 °F 60 °F 30.15 in Calm   3 mph 74% 0.00 in 0 W/m2
20:34 68.5 °F 59.9 °F 30.15 in Calm   3 mph 74% 0.00 in 0 W/m2
20:39 68.3 °F 59.8 °F 30.16 in Calm   1 mph 74.2% 0.00 in 0 W/m2
20:44 68.2 °F 60 °F 30.16 in SW 0.1 mph 3 mph 75% 0.00 in 0 W/m2
20:49 68.1 °F 59.9 °F 30.16 in SW 0.8 mph 4 mph 75% 0.00 in 0 W/m2
20:54 68 °F 59.9 °F 30.16 in SW 0.5 mph 4 mph 75.1% 0.00 in 0 W/m2
20:59 67.9 °F 59.8 °F 30.17 in Calm   4 mph 75.2% 0.00 in 0 W/m2
21:04 67.8 °F 59.9 °F 30.17 in Calm   4 mph 75.9% 0.00 in 0 W/m2
21:09 67.7 °F 59.8 °F 30.17 in Calm     76% 0.00 in 0 W/m2
21:14 67.6 °F 59.7 °F 30.17 in Calm     76% 0.00 in 0 W/m2
21:19 67.4 °F 59.6 °F 30.17 in Calm   1 mph 76% 0.00 in 0 W/m2
21:24 67.3 °F 59.8 °F 30.17 in Calm   1 mph 76.7% 0.00 in 0 W/m2
21:29 67.2 °F 59.6 °F 30.17 in Calm   1 mph 76.6% 0.00 in 0 W/m2
21:33 67.1 °F 59.7 °F 30.17 in Calm   1 mph 77% 0.00 in 0 W/m2
22:00 66 °F 58.6 °F 30.17 in Calm     77% 0.00 in 0 W/m2
22:30 64.9 °F 57.9 °F 30.16 in Calm     78% 0.00 in 0 W/m2
23:00 63.8 °F 57.2 °F 30.15 in Calm   3 mph 79% 0.00 in 0 W/m2
23:30 63.2 °F 56.9 °F 30.15 in Calm   1 mph 80% 0.00 in 0 W/m2
Hartford County Weather
Compliments of Weather Underground - 2 mb